createdAt,value
2019-05-14T00:00:32.500Z,77.63
2019-05-14T00:02:59.511Z,77.72
2019-05-14T00:05:26.206Z,77.87
2019-05-14T00:07:52.945Z,77.88
2019-05-14T00:10:21.729Z,78.51
2019-05-14T00:12:48.346Z,79.27
2019-05-14T00:15:15.312Z,79.59
2019-05-14T00:17:41.991Z,79.48
2019-05-14T00:20:10.064Z,79.40
2019-05-14T00:22:37.640Z,79.12
2019-05-14T00:25:04.818Z,79.90
2019-05-14T00:27:31.555Z,79.74
2019-05-14T00:29:58.283Z,79.40
2019-05-14T00:32:25.023Z,79.23
2019-05-14T00:34:51.838Z,79.40
2019-05-14T00:37:18.782Z,79.89
2019-05-14T00:39:45.441Z,80.34
2019-05-14T00:42:12.706Z,80.63
2019-05-14T00:44:51.510Z,80.26
2019-05-14T00:47:08.319Z,80.12
2019-05-14T00:49:35.082Z,79.77
2019-05-14T00:52:02.423Z,80.61
2019-05-14T00:54:29.320Z,80.34
2019-05-14T00:56:56.242Z,80.23
2019-05-14T00:59:22.961Z,80.43
2019-05-14T01:01:51.612Z,80.34
2019-05-14T01:04:18.237Z,80.09
2019-05-14T01:06:45.046Z,80.12
2019-05-14T01:09:11.761Z,80.42
2019-05-14T01:11:38.727Z,80.55
2019-05-14T01:14:06.638Z,80.78
2019-05-14T01:16:33.337Z,80.24
2019-05-14T01:19:02.059Z,80.32
2019-05-14T01:21:31.043Z,80.00
2019-05-14T01:23:57.280Z,79.95
2019-05-14T01:26:23.970Z,79.99
2019-05-14T01:28:51.493Z,80.11
2019-05-14T01:31:21.941Z,80.80
2019-05-14T01:33:48.844Z,80.38
2019-05-14T01:36:15.603Z,81.18
2019-05-14T01:38:42.292Z,80.64
2019-05-14T01:41:08.961Z,81.10
2019-05-14T01:43:35.701Z,80.42
2019-05-14T01:46:02.378Z,80.84
2019-05-14T01:48:31.116Z,80.50
2019-05-14T01:50:57.854Z,80.80
2019-05-14T01:53:24.549Z,80.49
2019-05-14T01:55:52.011Z,80.71
2019-05-14T01:58:19.314Z,80.90
2019-05-14T02:00:46.182Z,81.48
2019-05-14T02:03:12.890Z,81.83
2019-05-14T02:05:41.593Z,80.91
2019-05-14T02:08:08.285Z,81.16
2019-05-14T02:10:34.959Z,81.81
2019-05-14T02:15:37.096Z,82.07
2019-05-14T02:17:56.322Z,81.59
2019-05-14T02:20:22.997Z,81.37
2019-05-14T02:22:52.273Z,81.88
2019-05-14T02:25:18.362Z,82.06
2019-05-14T02:27:45.044Z,82.40
2019-05-14T02:30:12.185Z,82.52
2019-05-14T02:32:40.470Z,82.33
2019-05-14T02:35:09.943Z,82.73
2019-05-14T02:37:39.263Z,82.90
2019-05-14T02:40:05.977Z,82.99
2019-05-14T02:42:32.878Z,83.06
2019-05-14T02:44:59.672Z,83.32
2019-05-14T02:47:29.643Z,83.02
2019-05-14T02:49:55.177Z,83.10
2019-05-14T02:52:21.928Z,83.28
2019-05-14T02:54:49.639Z,83.18
2019-05-14T02:57:19.724Z,83.26
2019-05-14T02:59:45.704Z,84.00
2019-05-14T03:02:12.530Z,83.63
2019-05-14T03:04:39.951Z,83.52
2019-05-14T03:07:10.821Z,83.51
2019-05-14T03:09:40.362Z,83.94
2019-05-14T03:12:05.987Z,83.98
2019-05-14T03:14:32.949Z,84.49
2019-05-14T03:16:59.978Z,84.45
2019-05-14T03:19:29.597Z,84.49
2019-05-14T03:21:55.621Z,84.63
2019-05-14T03:24:22.283Z,84.30
2019-05-14T03:26:49.966Z,84.24
2019-05-14T03:29:19.640Z,84.08
2019-05-14T03:31:51.908Z,83.83
2019-05-14T03:34:15.532Z,83.52
2019-05-14T03:36:44.119Z,83.64
2019-05-14T03:39:11.127Z,83.86
2019-05-14T03:41:39.599Z,84.55
2019-05-14T03:44:09.754Z,84.50
2019-05-14T03:46:45.922Z,84.53
2019-05-14T03:49:04.231Z,84.75
2019-05-14T03:51:31.981Z,84.72
2019-05-14T03:54:06.671Z,84.40
2019-05-14T03:56:29.878Z,84.48
2019-05-14T03:58:59.658Z,84.38
2019-05-14T04:01:25.240Z,84.54
2019-05-14T04:03:52.530Z,84.42
2019-05-14T04:06:20.504Z,84.34
2019-05-14T04:08:49.684Z,83.00
2019-05-14T04:11:20.134Z,83.36
2019-05-14T04:13:50.275Z,83.55
2019-05-14T04:16:20.687Z,81.26
2019-05-14T04:18:50.478Z,80.48
2019-05-14T04:21:20.501Z,81.68
2019-05-14T04:23:50.833Z,81.30
2019-05-14T04:26:20.029Z,82.07
2019-05-14T04:28:49.831Z,79.72
2019-05-14T04:31:19.317Z,79.53
2019-05-14T04:33:50.144Z,79.86
2019-05-14T04:36:19.594Z,79.74
2019-05-14T04:38:51.462Z,79.91
2019-05-14T04:41:15.060Z,80.21
2019-05-14T04:43:41.857Z,79.94
2019-05-14T04:46:10.408Z,79.73
2019-05-14T04:48:42.516Z,78.75
2019-05-14T04:51:09.566Z,78.04
2019-05-14T04:53:34.485Z,78.11
2019-05-14T04:56:01.288Z,77.63
2019-05-14T04:58:29.694Z,78.83
2019-05-14T05:01:00.127Z,79.25
2019-05-14T05:03:25.492Z,78.53
2019-05-14T05:05:52.160Z,78.15
2019-05-14T05:08:19.866Z,78.63
2019-05-14T05:10:49.493Z,76.99
2019-05-14T05:13:18.436Z,76.82
2019-05-14T05:15:45.102Z,76.30
2019-05-14T05:18:11.783Z,74.41
2019-05-14T05:20:39.453Z,71.57
2019-05-14T05:23:08.396Z,69.42
2019-05-14T05:25:35.069Z,65.91
2019-05-14T05:28:01.873Z,65.30
2019-05-14T05:30:29.513Z,64.95
2019-05-14T05:32:56.417Z,62.50
2019-05-14T05:35:23.102Z,68.47
2019-05-14T05:37:49.842Z,69.21
2019-05-14T05:40:19.476Z,68.61
2019-05-14T05:42:48.827Z,68.52
2019-05-14T05:45:15.516Z,68.42
2019-05-14T05:47:54.357Z,68.07
2019-05-14T05:50:11.140Z,67.43
2019-05-14T05:52:38.797Z,66.73
2019-05-14T05:55:08.875Z,63.04
2019-05-14T06:00:09.456Z,59.31
2019-05-14T06:02:36.285Z,59.45
2019-05-14T06:05:04.066Z,58.64
2019-05-14T06:07:30.819Z,58.02
2019-05-14T06:09:58.810Z,57.94
2019-05-14T06:12:25.833Z,57.64
2019-05-14T06:14:52.631Z,59.41
2019-05-14T06:17:19.426Z,59.04
2019-05-14T06:19:48.444Z,59.71
2019-05-14T06:22:14.782Z,62.72
2019-05-14T06:24:41.462Z,60.97
2019-05-14T06:27:09.355Z,60.53
2019-05-14T06:29:38.307Z,60.81
2019-05-14T06:32:05.135Z,60.39
2019-05-14T06:34:31.811Z,61.17
2019-05-14T06:36:59.295Z,61.70
2019-05-14T06:39:28.232Z,62.35
2019-05-14T06:41:55.191Z,60.57
2019-05-14T06:44:22.026Z,62.64
2019-05-14T06:46:52.692Z,62.02
2019-05-14T06:49:19.666Z,60.70
2019-05-14T06:51:48.840Z,60.24
2019-05-14T06:54:15.441Z,59.72
2019-05-14T06:56:42.149Z,62.07
2019-05-14T06:59:09.181Z,59.68
2019-05-14T07:01:38.269Z,58.66
2019-05-14T07:04:04.819Z,59.27
2019-05-14T07:06:31.566Z,58.51
2019-05-14T07:08:58.982Z,58.88
2019-05-14T07:11:25.876Z,59.46
2019-05-14T07:13:52.646Z,59.95
2019-05-14T07:16:19.973Z,60.93
2019-05-14T07:18:52.964Z,60.85
2019-05-14T07:21:15.516Z,60.24
2019-05-14T07:23:42.179Z,60.71
2019-05-14T07:26:08.885Z,61.68
2019-05-14T07:28:35.643Z,62.59
2019-05-14T07:31:02.327Z,62.81
2019-05-14T07:33:29.514Z,62.35
2019-05-14T07:35:59.147Z,63.43
2019-05-14T07:38:25.182Z,61.37
2019-05-14T07:40:51.878Z,60.83
2019-05-14T07:43:18.928Z,59.90
2019-05-14T07:45:45.754Z,59.48
2019-05-14T07:48:12.712Z,59.71
2019-05-14T07:50:40.016Z,59.80
2019-05-14T07:53:09.014Z,62.50
2019-05-14T07:55:35.667Z,63.83
2019-05-14T07:58:02.665Z,66.12
2019-05-14T08:00:29.414Z,65.73
2019-05-14T08:02:58.077Z,65.70
2019-05-14T08:05:24.739Z,66.11
2019-05-14T08:07:51.713Z,65.97
2019-05-14T08:10:18.653Z,67.13
2019-05-14T08:12:45.651Z,68.21
2019-05-14T08:15:18.645Z,68.32
2019-05-14T08:17:41.501Z,65.31
2019-05-14T08:20:09.414Z,64.13
2019-05-14T08:22:38.164Z,63.61
2019-05-14T08:25:08.442Z,67.16
2019-05-14T08:27:38.923Z,67.00
2019-05-14T08:30:10.239Z,62.94
2019-05-14T08:32:39.014Z,63.93
2019-05-14T08:35:08.854Z,62.34
2019-05-14T08:37:35.820Z,62.50
2019-05-14T08:40:05.892Z,61.80
2019-05-14T08:42:34.013Z,60.61
2019-05-14T08:45:04.803Z,59.41
2019-05-14T08:47:32.051Z,58.88
2019-05-14T08:50:00.237Z,59.91
2019-05-14T08:52:28.823Z,57.48
2019-05-14T08:55:09.174Z,57.28
2019-05-14T08:57:24.451Z,58.29
2019-05-14T08:59:51.324Z,58.09
2019-05-14T09:02:19.712Z,58.09
2019-05-14T09:04:53.305Z,59.33
2019-05-14T09:07:15.590Z,59.63
2019-05-14T09:09:42.397Z,60.88
2019-05-14T09:12:12.476Z,61.31
2019-05-14T09:14:38.823Z,62.37
2019-05-14T09:17:05.812Z,63.10
2019-05-14T09:19:32.528Z,61.74
2019-05-14T09:21:59.199Z,61.74
2019-05-14T09:24:28.857Z,60.80
2019-05-14T09:26:54.644Z,60.80
2019-05-14T09:29:25.782Z,63.28
2019-05-14T09:31:50.085Z,59.41
2019-05-14T09:34:19.386Z,60.98
2019-05-14T09:36:45.441Z,57.46
2019-05-14T09:39:12.393Z,59.04
2019-05-14T09:41:39.097Z,57.54
2019-05-14T09:44:05.828Z,58.47
2019-05-14T09:46:32.217Z,56.09
2019-05-14T09:51:26.261Z,59.00
2019-05-14T09:53:52.985Z,55.01
2019-05-14T09:56:20.793Z,54.82
2019-05-14T09:58:49.508Z,55.75
2019-05-14T10:01:19.125Z,52.60
2019-05-14T10:03:45.334Z,57.45
2019-05-14T10:06:12.170Z,56.85
2019-05-14T10:08:39.253Z,57.38
2019-05-14T10:11:05.783Z,54.59
2019-05-14T10:13:33.690Z,54.56
2019-05-14T10:16:00.409Z,56.04
2019-05-14T10:18:28.508Z,55.41
2019-05-14T10:20:55.617Z,54.97
2019-05-14T10:23:22.323Z,53.36
2019-05-14T10:25:49.047Z,53.98
2019-05-14T10:28:15.874Z,51.52
2019-05-14T10:30:42.542Z,53.69
2019-05-14T10:33:14.771Z,49.49
2019-05-14T10:35:39.113Z,51.48
2019-05-14T10:38:08.749Z,50.91
2019-05-14T10:40:34.772Z,50.71
2019-05-14T10:43:01.548Z,50.67
2019-05-14T10:45:28.873Z,52.74
2019-05-14T10:47:58.470Z,51.02
2019-05-14T10:50:24.581Z,50.60
2019-05-14T10:52:51.300Z,51.69
2019-05-14T10:55:18.575Z,52.60
2019-05-14T10:57:45.601Z,52.08
2019-05-14T11:00:12.521Z,52.94
2019-05-14T11:02:39.393Z,52.94
2019-05-14T11:05:07.021Z,54.39
2019-05-14T11:07:33.727Z,55.03
2019-05-14T11:10:00.442Z,52.60
2019-05-14T11:12:29.708Z,53.24
2019-05-14T11:14:55.828Z,52.69
2019-05-14T11:17:23.389Z,53.15
2019-05-14T11:19:50.119Z,53.05
2019-05-14T11:22:18.451Z,52.74
2019-05-14T11:24:45.353Z,53.04
2019-05-14T11:27:12.104Z,52.76
2019-05-14T11:29:39.002Z,50.71
2019-05-14T11:32:05.801Z,50.93
2019-05-14T11:34:32.642Z,49.71
2019-05-14T11:36:59.334Z,53.32
2019-05-14T11:39:26.054Z,49.15
2019-05-14T11:41:52.860Z,49.30
2019-05-14T11:44:19.542Z,49.78
2019-05-14T11:46:56.368Z,48.80
2019-05-14T11:49:19.396Z,47.94
2019-05-14T11:52:00.952Z,51.18
2019-05-14T11:54:14.917Z,49.07
2019-05-14T11:56:42.116Z,48.83
2019-05-14T11:59:08.964Z,52.67
2019-05-14T12:01:35.694Z,54.54
2019-05-14T12:04:02.427Z,56.85
2019-05-14T12:06:30.472Z,52.33
2019-05-14T12:08:58.241Z,54.33
2019-05-14T12:11:25.044Z,56.38
2019-05-14T12:13:51.442Z,52.84
2019-05-14T12:16:18.134Z,55.45
2019-05-14T12:18:44.918Z,57.97
2019-05-14T12:21:11.688Z,58.41
2019-05-14T12:23:39.362Z,58.22
2019-05-14T12:26:06.194Z,59.24
2019-05-14T12:28:32.890Z,58.82
2019-05-14T12:30:59.667Z,59.50
2019-05-14T12:33:29.529Z,58.95
2019-05-14T12:35:55.017Z,60.98
2019-05-14T12:38:21.749Z,59.75
2019-05-14T12:40:48.470Z,59.04
2019-05-14T12:43:15.183Z,60.61
2019-05-14T12:45:41.849Z,57.98
2019-05-14T12:48:09.318Z,55.16
2019-05-14T12:50:38.886Z,56.70
2019-05-14T12:53:04.897Z,57.66
2019-05-14T12:55:32.761Z,53.12
2019-05-14T12:57:59.876Z,56.47
2019-05-14T13:00:26.661Z,56.62
2019-05-14T13:02:53.422Z,55.08
2019-05-14T13:05:20.103Z,55.08
2019-05-14T13:07:50.826Z,55.24
2019-05-14T13:10:15.757Z,54.92
2019-05-14T13:12:42.537Z,55.61
2019-05-14T13:15:09.541Z,56.58
2019-05-14T13:17:38.593Z,56.62
2019-05-14T13:20:05.709Z,57.77
2019-05-14T13:22:42.265Z,58.00
2019-05-14T13:25:01.198Z,56.94
2019-05-14T13:27:28.723Z,56.78
2019-05-14T13:29:55.625Z,57.52
2019-05-14T13:32:22.304Z,56.27
2019-05-14T13:34:49.080Z,56.27
2019-05-14T13:37:15.781Z,58.44
2019-05-14T13:39:42.629Z,56.59
2019-05-14T13:42:12.062Z,55.93
2019-05-14T13:44:39.048Z,55.93
2019-05-14T13:47:05.758Z,56.23
2019-05-14T13:49:32.526Z,56.23
2019-05-14T13:51:59.941Z,56.52
2019-05-14T13:54:31.548Z,56.07
2019-05-14T13:56:55.342Z,55.55
2019-05-14T13:59:22.063Z,55.80
2019-05-14T14:01:48.929Z,56.45
2019-05-14T14:04:18.147Z,56.46
2019-05-14T14:06:44.405Z,54.91
2019-05-14T14:09:12.340Z,54.91
2019-05-14T14:11:39.984Z,54.62
2019-05-14T14:14:08.798Z,56.34
2019-05-14T14:16:35.296Z,55.31
2019-05-14T14:19:03.878Z,55.81
2019-05-14T14:21:30.897Z,55.91
2019-05-14T14:23:59.251Z,55.68
2019-05-14T14:26:28.885Z,57.15
2019-05-14T14:28:59.928Z,57.15
2019-05-14T14:31:28.359Z,56.76
2019-05-14T14:33:54.997Z,57.26
2019-05-14T14:36:21.764Z,57.67
2019-05-14T14:38:49.525Z,57.20
2019-05-14T14:41:19.069Z,55.65
2019-05-14T14:43:45.340Z,56.10
2019-05-14T14:46:14.494Z,56.48
2019-05-14T14:48:57.923Z,57.67
2019-05-14T14:51:28.524Z,55.63
2019-05-14T14:54:02.570Z,56.37
2019-05-14T14:56:28.365Z,56.31
2019-05-14T14:58:55.939Z,57.88
2019-05-14T15:01:33.650Z,55.65
2019-05-14T15:04:01.461Z,57.79
2019-05-14T15:06:30.527Z,56.58
2019-05-14T15:08:58.847Z,59.27
2019-05-14T15:11:29.204Z,56.97
2019-05-14T15:16:20.526Z,56.84
2019-05-14T15:18:49.730Z,55.04
2019-05-14T15:21:18.926Z,54.80
2019-05-14T15:24:01.681Z,54.65
2019-05-14T15:28:39.442Z,56.32
2019-05-14T15:33:32.200Z,56.79
2019-05-14T15:35:59.960Z,57.61
2019-05-14T15:38:30.279Z,57.55
2019-05-14T15:40:55.030Z,57.16
2019-05-14T15:43:21.763Z,57.76
2019-05-14T15:45:48.479Z,57.49
2019-05-14T15:48:15.333Z,58.83
2019-05-14T15:50:42.049Z,60.11
2019-05-14T15:53:11.231Z,60.15
2019-05-14T15:55:38.497Z,60.19
2019-05-14T15:58:05.206Z,60.58
2019-05-14T16:00:31.913Z,61.37
2019-05-14T16:03:00.306Z,62.22
2019-05-14T16:05:28.505Z,61.73
2019-05-14T16:07:55.590Z,62.64
2019-05-14T16:10:22.369Z,62.54
2019-05-14T16:12:49.950Z,62.94
2019-05-14T16:15:18.837Z,62.88
2019-05-14T16:17:53.641Z,63.39
2019-05-14T16:20:14.760Z,64.51
2019-05-14T16:22:41.456Z,63.85
2019-05-14T16:25:08.982Z,64.03
2019-05-14T16:27:39.133Z,64.15
2019-05-14T16:30:06.089Z,63.77
2019-05-14T16:32:33.261Z,64.24
2019-05-14T16:35:00.044Z,64.20
2019-05-14T16:37:28.222Z,64.49
2019-05-14T16:39:55.123Z,64.80
2019-05-14T16:42:22.000Z,64.74
2019-05-14T16:44:48.691Z,66.05
2019-05-14T16:47:15.444Z,65.99
2019-05-14T16:49:42.307Z,66.53
2019-05-14T16:52:09.366Z,66.50
2019-05-14T16:54:36.236Z,66.86
2019-05-14T16:57:02.979Z,66.87
2019-05-14T16:59:29.827Z,67.06
2019-05-14T17:01:58.494Z,66.67
2019-05-14T17:04:25.362Z,67.34
2019-05-14T17:06:52.170Z,67.19
2019-05-14T17:09:18.895Z,67.21
2019-05-14T17:20:08.792Z,67.59
2019-05-14T17:22:35.825Z,67.25
2019-05-14T17:25:03.458Z,67.71
2019-05-14T17:27:30.158Z,67.30
2019-05-14T17:29:58.956Z,67.63
2019-05-14T17:32:24.702Z,67.97
2019-05-14T17:34:51.514Z,67.82
2019-05-14T17:37:19.086Z,67.62
2019-05-14T17:39:46.009Z,67.43
2019-05-14T17:42:12.872Z,67.58
2019-05-14T17:44:39.727Z,67.45
2019-05-14T17:47:06.424Z,67.15
2019-05-14T17:49:33.208Z,67.59
2019-05-14T17:52:00.037Z,67.45
2019-05-14T17:54:28.456Z,66.97
2019-05-14T17:56:55.519Z,67.25
2019-05-14T17:59:22.320Z,65.97
2019-05-14T18:01:49.303Z,66.29
2019-05-14T18:04:18.316Z,66.70
2019-05-14T18:06:43.983Z,66.67
2019-05-14T18:09:11.024Z,65.98
2019-05-14T18:11:39.922Z,65.86
2019-05-14T18:14:11.635Z,65.95
2019-05-14T18:16:34.299Z,66.50
2019-05-14T18:19:01.009Z,66.41
2019-05-14T18:21:28.515Z,66.74
2019-05-14T18:23:55.508Z,68.15
2019-05-14T18:26:22.284Z,69.18
2019-05-14T18:28:49.009Z,67.24
2019-05-14T18:31:15.787Z,66.11
2019-05-14T18:33:42.592Z,66.13
2019-05-14T18:36:08.552Z,65.40
2019-05-14T18:38:35.286Z,69.16
2019-05-14T18:41:01.979Z,68.77
2019-05-14T18:43:29.027Z,66.82
2019-05-14T18:45:55.962Z,67.92
2019-05-14T18:48:22.641Z,67.77
2019-05-14T18:50:49.632Z,68.32
2019-05-14T18:53:18.927Z,68.65
2019-05-14T18:55:44.921Z,69.11
2019-05-14T18:58:11.892Z,69.14
2019-05-14T19:00:38.975Z,70.52
2019-05-14T19:03:08.300Z,70.32
2019-05-14T19:05:34.625Z,70.81
2019-05-14T19:08:01.383Z,71.81
2019-05-14T19:10:28.197Z,72.16
2019-05-14T19:12:55.110Z,72.56
2019-05-14T19:15:21.844Z,71.32
2019-05-14T19:17:49.021Z,71.56
2019-05-14T19:20:15.934Z,72.12
2019-05-14T19:22:42.731Z,72.29
2019-05-14T19:25:09.886Z,72.73
2019-05-14T19:27:37.973Z,72.23
2019-05-14T19:32:31.581Z,73.30
2019-05-14T19:34:58.002Z,72.16
2019-05-14T19:37:24.708Z,71.80
2019-05-14T19:39:51.534Z,72.38
2019-05-14T19:42:18.449Z,73.05
2019-05-14T19:44:45.200Z,72.85
2019-05-14T19:47:12.107Z,73.77
2019-05-14T19:49:38.890Z,73.49
2019-05-14T19:52:05.635Z,74.67
2019-05-14T19:54:32.328Z,74.01
2019-05-14T19:57:00.890Z,74.04
2019-05-14T19:59:28.764Z,74.41
2019-05-14T20:04:21.520Z,75.56
2019-05-14T20:06:49.315Z,74.93
2019-05-14T20:09:17.894Z,74.67
2019-05-14T20:11:44.786Z,74.86
2019-05-14T20:14:11.521Z,75.72
2019-05-14T20:16:39.211Z,76.13
2019-05-14T20:19:08.694Z,76.12
2019-05-14T20:21:34.941Z,76.10
2019-05-14T20:24:01.602Z,76.82
2019-05-14T20:26:28.350Z,75.97
2019-05-14T20:28:55.141Z,76.91
2019-05-14T20:31:21.892Z,77.03
2019-05-14T20:33:48.727Z,76.01
2019-05-14T20:36:15.678Z,76.17
2019-05-14T20:38:42.543Z,72.85
2019-05-14T20:41:09.346Z,72.95
2019-05-14T20:43:38.302Z,74.03
2019-05-14T20:46:04.737Z,72.04
2019-05-14T20:48:31.428Z,71.73
2019-05-14T20:50:58.558Z,72.91
2019-05-14T20:53:25.701Z,72.74
2019-05-14T20:55:52.378Z,73.36
2019-05-14T20:58:20.011Z,74.04
2019-05-14T21:00:48.476Z,73.86
2019-05-14T21:03:15.469Z,74.73
2019-05-14T21:05:42.728Z,74.30
2019-05-14T21:08:13.472Z,74.23
2019-05-14T21:10:39.602Z,75.05
2019-05-14T21:13:08.679Z,76.17
2019-05-14T21:15:35.699Z,73.12
2019-05-14T21:18:02.419Z,74.84
2019-05-14T21:20:29.211Z,73.77
2019-05-14T21:22:58.518Z,73.87
2019-05-14T21:25:25.566Z,75.01
2019-05-14T21:27:52.401Z,74.76
2019-05-14T21:42:29.286Z,72.66
2019-05-14T21:44:58.391Z,71.85
2019-05-14T21:47:24.944Z,73.69
2019-05-14T21:49:51.719Z,71.44
2019-05-14T21:52:18.442Z,70.19
2019-05-14T21:54:47.941Z,72.20
2019-05-14T21:57:14.082Z,71.82
2019-05-14T21:59:40.863Z,72.84
2019-05-14T22:02:08.679Z,71.36
2019-05-14T22:04:35.610Z,72.51
2019-05-14T22:07:02.359Z,72.72
2019-05-14T22:09:29.066Z,72.49
2019-05-14T22:11:58.157Z,72.27
2019-05-14T22:14:24.720Z,72.41
2019-05-14T22:16:51.605Z,73.76
2019-05-14T22:19:19.034Z,74.00
2019-05-14T22:21:46.050Z,73.93
2019-05-14T22:24:11.884Z,73.30
2019-05-14T22:26:38.966Z,73.26
2019-05-14T22:29:05.546Z,73.90
2019-05-14T22:31:32.365Z,73.55
2019-05-14T22:33:59.044Z,72.79
2019-05-14T22:36:25.821Z,73.89
2019-05-14T22:38:52.485Z,74.18
2019-05-14T22:41:19.224Z,75.67
2019-05-14T22:43:45.907Z,75.30
2019-05-14T22:46:12.622Z,74.17
2019-05-14T22:48:39.445Z,73.79
2019-05-14T22:51:08.520Z,74.09
2019-05-14T22:53:34.678Z,73.85
2019-05-14T22:56:02.428Z,75.22
2019-05-14T22:58:30.229Z,75.66
2019-05-14T23:01:13.631Z,75.43
2019-05-14T23:03:28.840Z,75.02
2019-05-14T23:05:58.096Z,76.19
2019-05-14T23:08:24.468Z,74.73
2019-05-14T23:10:51.265Z,74.30
2019-05-14T23:13:18.651Z,75.31
2019-05-14T23:15:47.991Z,76.00
2019-05-14T23:18:14.295Z,75.40
2019-05-14T23:20:41.059Z,75.56
2019-05-14T23:23:09.246Z,76.08
2019-05-14T23:25:38.599Z,75.05
2019-05-14T23:28:04.922Z,75.23
2019-05-14T23:35:24.538Z,77.37
2019-05-14T23:37:51.422Z,75.38
2019-05-14T23:40:18.184Z,74.07
2019-05-14T23:42:45.086Z,73.05
2019-05-14T23:45:11.919Z,72.28
2019-05-14T23:47:38.663Z,71.64
2019-05-14T23:50:07.934Z,71.93
2019-05-14T23:52:34.102Z,71.04
2019-05-14T23:55:00.861Z,70.42
2019-05-14T23:57:28.801Z,70.15
2019-05-14T23:59:57.830Z,69.83
